createdAt,value
2023-03-24T00:00:43.930Z,2.70
2023-03-24T00:02:18.604Z,2.60
2023-03-24T00:03:52.322Z,2.80
2023-03-24T00:05:28.465Z,2.83
2023-03-24T00:07:01.689Z,3.08
2023-03-24T00:08:36.752Z,3.00
2023-03-24T00:10:14.892Z,2.97
2023-03-24T00:11:48.502Z,3.00
2023-03-24T00:13:20.504Z,3.20
2023-03-24T00:14:54.530Z,3.08
2023-03-24T00:16:27.882Z,3.00
2023-03-24T00:21:13.564Z,3.00
2023-03-24T00:22:51.097Z,2.72
2023-03-24T00:24:24.246Z,2.65
2023-03-24T00:26:02.621Z,2.80
2023-03-24T00:27:36.949Z,2.75
2023-03-24T00:29:11.095Z,2.80
2023-03-24T00:30:51.707Z,3.00
2023-03-24T00:32:24.700Z,3.05
2023-03-24T00:33:59.384Z,2.70
2023-03-24T00:35:31.499Z,3.17
2023-03-24T00:37:04.767Z,2.85
2023-03-24T00:40:13.858Z,2.97
2023-03-24T00:41:47.994Z,3.10
2023-03-24T00:43:20.222Z,2.70
2023-03-24T00:44:54.148Z,2.50
2023-03-24T00:46:30.787Z,4.28
2023-03-24T00:48:05.249Z,5.38
2023-03-24T00:49:45.125Z,6.13
2023-03-24T00:51:18.539Z,6.15
2023-03-24T00:54:32.078Z,4.63
2023-03-24T00:56:05.720Z,3.75
2023-03-24T00:57:37.773Z,3.63
2023-03-24T00:59:13.797Z,3.30
2023-03-24T01:00:47.852Z,3.15
2023-03-24T01:02:24.615Z,2.63
2023-03-24T01:03:57.951Z,2.78
2023-03-24T01:05:33.151Z,3.10
2023-03-24T01:07:05.719Z,2.67
2023-03-24T01:08:39.021Z,2.67
2023-03-24T01:11:47.051Z,3.00
2023-03-24T01:13:21.362Z,2.50
2023-03-24T01:14:54.877Z,2.60
2023-03-24T01:16:28.107Z,2.97
2023-03-24T01:18:02.179Z,3.03
2023-03-24T01:19:34.315Z,4.95
2023-03-24T01:21:09.676Z,2.70
2023-03-24T01:22:44.720Z,2.90
2023-03-24T01:24:18.980Z,2.67
2023-03-24T01:25:51.814Z,2.70
2023-03-24T01:27:26.167Z,3.00
2023-03-24T01:28:59.635Z,2.80
2023-03-24T01:30:33.318Z,2.70
2023-03-24T01:32:06.893Z,2.80
2023-03-24T01:33:40.590Z,2.75
2023-03-24T01:35:13.873Z,2.95
2023-03-24T01:38:20.229Z,2.90
2023-03-24T01:39:53.442Z,3.10
2023-03-24T01:41:27.834Z,2.80
2023-03-24T01:43:01.850Z,3.17
2023-03-24T01:44:36.586Z,3.40
2023-03-24T01:46:16.443Z,3.90
2023-03-24T01:47:50.421Z,3.70
2023-03-24T01:49:25.433Z,3.72
2023-03-24T01:51:01.892Z,4.10
2023-03-24T01:52:37.943Z,4.13
2023-03-24T01:54:19.106Z,3.50
2023-03-24T01:55:52.108Z,3.25
2023-03-24T01:57:28.946Z,2.80
2023-03-24T01:59:07.070Z,3.00
2023-03-24T02:00:39.654Z,3.58
2023-03-24T02:02:13.871Z,3.55
2023-03-24T02:03:47.473Z,3.70
2023-03-24T02:05:20.605Z,3.45
2023-03-24T02:06:55.068Z,3.25
2023-03-24T02:08:35.335Z,3.42
2023-03-24T02:10:12.726Z,3.40
2023-03-24T02:11:46.720Z,3.55
2023-03-24T02:13:19.776Z,2.97
2023-03-24T02:14:53.144Z,2.95
2023-03-24T02:18:13.386Z,3.35
2023-03-24T02:20:20.288Z,3.22
2023-03-24T02:22:21.382Z,3.10
2023-03-24T02:24:21.801Z,2.70
2023-03-24T02:26:38.232Z,3.00
2023-03-24T02:28:23.967Z,3.13
2023-03-24T02:30:40.350Z,3.30
2023-03-24T02:32:52.629Z,3.10
2023-03-24T02:34:55.182Z,4.18
2023-03-24T02:36:57.422Z,2.78
2023-03-24T02:39:09.239Z,3.30
2023-03-24T02:40:47.521Z,3.15
2023-03-24T02:42:31.074Z,3.83
2023-03-24T02:44:10.385Z,3.70
2023-03-24T02:45:51.573Z,3.80
2023-03-24T02:47:29.226Z,3.60
2023-03-24T02:49:17.965Z,4.32
2023-03-24T02:50:55.833Z,3.65
2023-03-24T02:52:37.055Z,3.63
2023-03-24T02:54:14.229Z,3.60
2023-03-24T02:55:53.378Z,3.67
2023-03-24T02:57:36.166Z,3.40
2023-03-24T02:59:17.281Z,3.60
2023-03-24T03:00:59.756Z,3.97
2023-03-24T03:02:37.061Z,3.63
2023-03-24T03:04:14.112Z,3.35
2023-03-24T03:05:52.333Z,3.75
2023-03-24T03:07:28.009Z,3.75
2023-03-24T03:09:07.813Z,3.78
2023-03-24T03:10:43.879Z,3.40
2023-03-24T03:12:21.567Z,3.72
2023-03-24T03:13:59.319Z,3.92
2023-03-24T03:15:37.547Z,4.30
2023-03-24T03:17:14.644Z,4.00
2023-03-24T03:18:51.813Z,4.15
2023-03-24T03:20:31.049Z,4.03
2023-03-24T03:22:07.568Z,3.85
2023-03-24T03:23:45.260Z,3.55
2023-03-24T03:25:22.813Z,3.83
2023-03-24T03:26:58.452Z,3.65
2023-03-24T03:28:35.165Z,3.35
2023-03-24T03:30:14.264Z,3.50
2023-03-24T03:31:53.795Z,3.60
2023-03-24T03:33:32.130Z,3.65
2023-03-24T03:35:11.160Z,3.50
2023-03-24T03:36:52.092Z,3.30
2023-03-24T03:38:30.370Z,3.30
2023-03-24T03:40:09.165Z,3.60
2023-03-24T03:41:43.558Z,3.30
2023-03-24T03:43:16.977Z,3.70
2023-03-24T03:44:51.598Z,3.50
2023-03-24T03:46:26.062Z,3.53
2023-03-24T03:47:59.383Z,3.78
2023-03-24T03:49:32.794Z,4.20
2023-03-24T03:52:47.657Z,3.22
2023-03-24T03:54:21.448Z,3.15
2023-03-24T03:55:56.940Z,3.42
2023-03-24T03:57:30.290Z,3.22
2023-03-24T04:00:37.978Z,3.00
2023-03-24T04:02:29.188Z,3.17
2023-03-24T04:04:26.856Z,3.50
2023-03-24T04:06:04.534Z,3.30
2023-03-24T04:07:45.212Z,3.35
2023-03-24T04:09:35.132Z,3.15
2023-03-24T04:11:26.857Z,3.25
2023-03-24T04:13:16.337Z,3.47
2023-03-24T04:15:26.645Z,3.15
2023-03-24T04:17:13.930Z,3.22
2023-03-24T04:18:57.083Z,3.25
2023-03-24T04:20:34.399Z,3.42
2023-03-24T04:22:20.837Z,3.10
2023-03-24T04:24:05.267Z,3.58
2023-03-24T04:25:49.979Z,2.90
2023-03-24T04:27:30.683Z,3.53
2023-03-24T04:29:10.743Z,3.10
2023-03-24T04:30:47.717Z,3.40
2023-03-24T04:32:32.382Z,3.30
2023-03-24T04:34:12.859Z,3.22
2023-03-24T04:35:50.304Z,3.55
2023-03-24T04:37:26.763Z,3.60
2023-03-24T04:39:01.813Z,3.50
2023-03-24T04:40:41.915Z,3.28
2023-03-24T04:42:18.829Z,3.28
2023-03-24T04:43:53.107Z,3.42
2023-03-24T04:45:26.569Z,3.33
2023-03-24T04:47:01.034Z,3.25
2023-03-24T04:48:35.391Z,3.00
2023-03-24T04:50:11.474Z,3.42
2023-03-24T04:51:45.737Z,3.63
2023-03-24T04:53:19.168Z,3.55
2023-03-24T04:54:52.093Z,3.55
2023-03-24T04:56:39.996Z,3.30
2023-03-24T04:58:13.219Z,3.15
2023-03-24T04:59:46.197Z,3.25
2023-03-24T05:01:21.489Z,3.17
2023-03-24T05:02:54.667Z,3.22
2023-03-24T05:04:29.996Z,3.38
2023-03-24T05:06:05.629Z,3.50
2023-03-24T05:07:38.549Z,3.20
2023-03-24T05:09:11.801Z,3.58
2023-03-24T05:12:17.784Z,3.92
2023-03-24T05:13:50.720Z,3.45
2023-03-24T05:15:23.733Z,3.67
2023-03-24T05:16:56.656Z,3.80
2023-03-24T05:18:29.709Z,3.50
2023-03-24T05:20:06.859Z,3.60
2023-03-24T05:21:39.796Z,5.15
2023-03-24T05:23:12.740Z,4.18
2023-03-24T05:24:45.681Z,3.53
2023-03-24T05:26:18.630Z,3.10
2023-03-24T05:27:50.892Z,3.00
2023-03-24T05:29:23.837Z,3.70
2023-03-24T05:30:56.854Z,3.20
2023-03-24T05:32:29.956Z,3.92
2023-03-24T05:34:02.850Z,4.05
2023-03-24T05:35:37.231Z,4.15
2023-03-24T05:37:12.938Z,3.95
2023-03-24T05:38:45.940Z,4.10
2023-03-24T05:40:19.091Z,3.50
2023-03-24T05:41:52.008Z,3.67
2023-03-24T05:43:25.343Z,3.92
2023-03-24T05:46:31.504Z,5.55
2023-03-24T05:48:04.731Z,4.75
2023-03-24T05:49:38.063Z,4.70
2023-03-24T05:52:45.494Z,5.90
2023-03-24T05:54:18.552Z,5.90
2023-03-24T05:55:53.729Z,6.38
2023-03-24T05:57:25.837Z,7.18
2023-03-24T05:58:58.826Z,9.95
2023-03-24T06:00:33.549Z,6.72
2023-03-24T06:02:07.752Z,5.57
2023-03-24T06:03:41.263Z,5.10
2023-03-24T06:05:14.642Z,4.30
2023-03-24T06:09:58.339Z,3.38
2023-03-24T06:11:31.565Z,3.33
2023-03-24T06:13:04.999Z,3.30
2023-03-24T06:14:38.655Z,3.38
2023-03-24T06:16:12.052Z,3.00
2023-03-24T06:17:45.837Z,3.45
2023-03-24T06:19:22.559Z,3.00
2023-03-24T06:21:00.697Z,3.30
2023-03-24T06:22:36.334Z,3.90
2023-03-24T06:24:09.519Z,4.05
2023-03-24T06:25:44.680Z,4.05
2023-03-24T06:27:21.596Z,3.97
2023-03-24T06:28:54.682Z,3.60
2023-03-24T06:30:27.851Z,3.40
2023-03-24T06:32:01.078Z,3.60
2023-03-24T06:33:34.382Z,3.05
2023-03-24T06:36:40.997Z,2.70
2023-03-24T06:38:15.470Z,2.90
2023-03-24T06:39:47.634Z,2.92
2023-03-24T06:41:20.688Z,3.40
2023-03-24T06:42:53.675Z,3.20
2023-03-24T06:44:27.049Z,3.30
2023-03-24T06:47:33.068Z,2.95
2023-03-24T06:49:06.136Z,3.03
2023-03-24T06:50:40.767Z,3.80
2023-03-24T06:52:14.426Z,3.50
2023-03-24T06:53:48.943Z,3.42
2023-03-24T06:55:22.767Z,3.55
2023-03-24T06:56:56.523Z,3.90
2023-03-24T06:58:29.457Z,3.63
2023-03-24T07:00:05.671Z,3.28
2023-03-24T07:01:39.672Z,4.03
2023-03-24T07:03:14.070Z,3.85
2023-03-24T07:04:47.242Z,4.20
2023-03-24T07:06:22.886Z,3.90
2023-03-24T07:09:33.666Z,4.32
2023-03-24T07:11:09.843Z,3.75
2023-03-24T07:12:43.036Z,4.65
2023-03-24T07:14:16.020Z,3.53
2023-03-24T07:15:49.005Z,3.78
2023-03-24T07:17:23.644Z,3.05
2023-03-24T07:18:57.289Z,3.50
2023-03-24T07:20:30.543Z,3.33
2023-03-24T07:22:03.528Z,3.67
2023-03-24T07:23:36.704Z,3.67
2023-03-24T07:25:14.139Z,3.60
2023-03-24T07:26:47.206Z,3.20
2023-03-24T07:28:20.580Z,2.60
2023-03-24T07:31:26.328Z,2.72
2023-03-24T07:33:02.077Z,2.90
2023-03-24T07:34:36.904Z,2.70
2023-03-24T07:36:10.651Z,2.60
2023-03-24T07:37:44.500Z,2.80
2023-03-24T07:39:17.432Z,2.72
2023-03-24T07:40:51.796Z,2.63
2023-03-24T07:42:25.211Z,2.70
2023-03-24T07:43:58.216Z,2.60
2023-03-24T07:45:31.333Z,2.50
2023-03-24T07:47:04.390Z,2.58
2023-03-24T07:48:37.389Z,2.20
2023-03-24T07:50:11.693Z,2.17
2023-03-24T07:51:44.668Z,2.38
2023-03-24T07:53:19.960Z,2.55
2023-03-24T07:54:53.247Z,1.90
2023-03-24T07:56:27.677Z,1.52
2023-03-24T07:58:00.757Z,1.98
2023-03-24T07:59:34.149Z,1.63
2023-03-24T08:01:09.826Z,1.70
2023-03-24T08:02:43.613Z,1.70
2023-03-24T08:04:16.933Z,1.58
2023-03-24T08:05:50.886Z,1.42
2023-03-24T08:07:24.854Z,1.40
2023-03-24T08:08:57.844Z,1.50
2023-03-24T08:10:31.739Z,1.42
2023-03-24T08:12:17.455Z,1.50
2023-03-24T08:13:53.333Z,1.40
2023-03-24T08:15:28.377Z,1.60
2023-03-24T08:17:01.489Z,1.50
2023-03-24T08:18:35.148Z,1.40
2023-03-24T08:20:14.437Z,1.50
2023-03-24T08:21:48.056Z,1.60
2023-03-24T08:23:21.164Z,1.58
2023-03-24T08:24:54.072Z,1.50
2023-03-24T08:26:27.398Z,1.50
2023-03-24T08:31:07.589Z,1.50
2023-03-24T08:32:45.161Z,1.73
2023-03-24T08:34:19.208Z,1.70
2023-03-24T08:35:57.505Z,1.60
2023-03-24T08:37:30.603Z,1.60
2023-03-24T08:39:06.382Z,1.58
2023-03-24T08:40:41.037Z,1.50
2023-03-24T08:42:14.119Z,1.50
2023-03-24T08:43:48.770Z,1.58
2023-03-24T08:45:23.940Z,1.60
2023-03-24T08:46:57.170Z,1.70
2023-03-24T08:48:32.385Z,1.80
2023-03-24T08:50:06.972Z,1.80
2023-03-24T08:51:39.984Z,2.00
2023-03-24T08:53:13.394Z,1.77
2023-03-24T08:54:46.560Z,1.75
2023-03-24T08:56:20.370Z,1.70
2023-03-24T08:57:53.803Z,1.85
2023-03-24T08:59:28.340Z,1.77
2023-03-24T09:01:01.501Z,1.80
2023-03-24T09:02:34.712Z,1.70
2023-03-24T09:04:08.330Z,1.60
2023-03-24T09:05:54.293Z,1.80
2023-03-24T09:07:27.292Z,1.80
2023-03-24T09:09:00.418Z,1.85
2023-03-24T09:10:32.509Z,2.03
2023-03-24T09:12:05.570Z,1.77
2023-03-24T09:13:38.528Z,1.85
2023-03-24T09:15:13.958Z,1.80
2023-03-24T09:16:48.552Z,2.25
2023-03-24T09:18:22.850Z,1.80
2023-03-24T09:19:55.827Z,1.90
2023-03-24T09:21:28.897Z,1.60
2023-03-24T09:23:01.882Z,2.20
2023-03-24T09:24:34.941Z,2.08
2023-03-24T09:26:08.080Z,1.90
2023-03-24T09:27:41.053Z,2.00
2023-03-24T09:29:14.027Z,2.17
2023-03-24T09:30:49.011Z,2.00
2023-03-24T09:32:22.738Z,1.90
2023-03-24T09:33:55.785Z,1.90
2023-03-24T09:35:29.272Z,2.08
2023-03-24T09:37:02.371Z,2.10
2023-03-24T09:38:35.993Z,2.20
2023-03-24T09:40:14.916Z,2.08
2023-03-24T09:41:50.528Z,2.75
2023-03-24T09:43:28.547Z,4.82
2023-03-24T09:45:06.129Z,3.70
2023-03-24T09:46:46.569Z,2.80
2023-03-24T09:48:23.381Z,2.67
2023-03-24T09:49:58.945Z,2.20
2023-03-24T09:51:35.911Z,2.45
2023-03-24T09:53:18.294Z,6.40
2023-03-24T09:54:55.400Z,2.78
2023-03-24T09:56:30.635Z,3.15
2023-03-24T09:58:08.364Z,3.20
2023-03-24T09:59:42.041Z,2.50
2023-03-24T10:01:16.673Z,2.28
2023-03-24T10:02:53.721Z,2.03
2023-03-24T10:04:32.091Z,2.20
2023-03-24T10:06:09.684Z,2.20
2023-03-24T10:07:48.563Z,2.22
2023-03-24T10:09:27.319Z,2.30
2023-03-24T10:11:04.432Z,2.08
2023-03-24T10:12:39.698Z,1.90
2023-03-24T10:14:25.587Z,2.40
2023-03-24T10:16:07.043Z,8.75
2023-03-24T10:17:46.852Z,2.78
2023-03-24T10:19:29.896Z,2.50
2023-03-24T10:21:12.426Z,2.47
2023-03-24T10:22:54.062Z,1.90
2023-03-24T10:24:38.242Z,2.03
2023-03-24T10:26:26.619Z,1.70
2023-03-24T10:28:03.518Z,2.00
2023-03-24T10:29:38.389Z,2.10
2023-03-24T10:31:14.827Z,1.60
2023-03-24T10:32:48.332Z,1.80
2023-03-24T10:34:25.675Z,2.00
2023-03-24T10:36:02.525Z,1.85
2023-03-24T10:37:35.544Z,1.70
2023-03-24T10:39:20.953Z,1.75
2023-03-24T10:40:58.313Z,1.65
2023-03-24T10:42:34.319Z,1.70
2023-03-24T10:44:07.678Z,1.60
2023-03-24T10:47:17.353Z,1.58
2023-03-24T10:48:52.673Z,1.50
2023-03-24T10:50:29.152Z,1.67
2023-03-24T10:52:09.563Z,1.90
2023-03-24T10:53:42.733Z,2.00
2023-03-24T10:56:51.923Z,1.60
2023-03-24T10:58:31.380Z,1.60
2023-03-24T11:00:13.120Z,1.83
2023-03-24T11:01:47.229Z,1.90
2023-03-24T11:03:28.546Z,1.85
2023-03-24T11:05:05.328Z,1.70
2023-03-24T11:06:39.888Z,1.77
2023-03-24T11:08:28.570Z,1.92
2023-03-24T11:10:06.542Z,1.90
2023-03-24T11:11:39.460Z,1.80
2023-03-24T11:13:19.541Z,1.73
2023-03-24T11:14:54.151Z,1.88
2023-03-24T11:16:32.394Z,1.80
2023-03-24T11:18:17.198Z,1.92
2023-03-24T11:19:54.303Z,1.88
2023-03-24T11:21:29.320Z,1.80
2023-03-24T11:24:39.252Z,1.67
2023-03-24T11:26:16.195Z,1.98
2023-03-24T11:27:49.848Z,1.80
2023-03-24T11:29:25.894Z,1.70
2023-03-24T11:30:58.961Z,1.73
2023-03-24T11:32:32.380Z,2.08
2023-03-24T11:34:11.015Z,1.90
2023-03-24T11:35:45.066Z,1.70
2023-03-24T11:37:23.329Z,2.00
2023-03-24T11:39:01.053Z,1.90
2023-03-24T11:40:35.970Z,1.70
2023-03-24T11:42:17.393Z,1.83
2023-03-24T11:43:50.680Z,1.70
2023-03-24T11:47:03.586Z,2.15
2023-03-24T11:48:41.780Z,1.73
2023-03-24T11:50:19.754Z,1.90
2023-03-24T11:51:55.437Z,1.98
2023-03-24T11:53:35.168Z,1.95
2023-03-24T11:55:16.546Z,2.38
2023-03-24T11:56:54.103Z,1.70
2023-03-24T11:58:32.759Z,1.70
2023-03-24T12:00:15.155Z,1.90
2023-03-24T12:01:53.713Z,2.00
2023-03-24T12:03:54.020Z,1.80
2023-03-24T12:05:34.014Z,1.85
2023-03-24T12:07:29.023Z,2.00
2023-03-24T12:09:25.393Z,1.80
2023-03-24T12:11:12.824Z,1.98
2023-03-24T12:12:59.343Z,1.90
2023-03-24T12:14:41.008Z,1.70
2023-03-24T12:16:36.326Z,1.70
2023-03-24T12:18:29.956Z,1.90
2023-03-24T12:20:21.718Z,2.00
2023-03-24T12:22:06.644Z,2.10
2023-03-24T12:23:51.232Z,2.00
2023-03-24T12:25:39.232Z,4.25
2023-03-24T12:27:24.380Z,1.90
2023-03-24T12:29:18.653Z,2.30
2023-03-24T12:32:45.919Z,1.80
2023-03-24T12:34:48.460Z,1.90
2023-03-24T12:36:33.330Z,2.03
2023-03-24T12:38:26.816Z,1.90
2023-03-24T12:40:24.458Z,1.90
2023-03-24T12:42:11.356Z,1.70
2023-03-24T12:43:51.940Z,2.13
2023-03-24T12:45:36.199Z,1.80
2023-03-24T12:47:19.229Z,1.85
2023-03-24T12:49:09.487Z,2.00
2023-03-24T12:50:57.022Z,2.15
2023-03-24T12:53:10.992Z,2.17
2023-03-24T12:54:55.001Z,1.90
2023-03-24T12:56:32.392Z,1.50
2023-03-24T12:58:12.806Z,1.70
2023-03-24T12:59:49.859Z,1.60
2023-03-24T13:01:32.022Z,1.70
2023-03-24T13:03:11.478Z,1.83
2023-03-24T13:04:49.582Z,1.85
2023-03-24T13:06:27.408Z,1.70
2023-03-24T13:08:04.233Z,1.48
2023-03-24T13:09:45.970Z,1.35
2023-03-24T13:11:32.627Z,1.40
2023-03-24T13:13:13.192Z,1.48
2023-03-24T13:14:52.951Z,1.58
2023-03-24T13:16:31.944Z,1.50
2023-03-24T13:18:17.926Z,1.40
2023-03-24T13:19:53.041Z,1.60
2023-03-24T13:21:28.525Z,1.40
2023-03-24T13:23:11.806Z,1.35
2023-03-24T13:24:45.704Z,1.15
2023-03-24T13:26:25.722Z,1.27
2023-03-24T13:28:04.410Z,1.70
2023-03-24T13:30:05.742Z,1.20
2023-03-24T13:31:45.588Z,1.15
2023-03-24T13:33:22.411Z,1.40
2023-03-24T13:34:59.842Z,1.25
2023-03-24T13:36:45.626Z,1.35
2023-03-24T13:38:21.829Z,1.80
2023-03-24T13:39:58.852Z,1.67
2023-03-24T13:41:37.539Z,1.80
2023-03-24T13:43:14.195Z,1.75
2023-03-24T13:44:50.261Z,1.83
2023-03-24T13:46:23.409Z,1.55
2023-03-24T13:48:07.315Z,1.70
2023-03-24T13:49:41.498Z,2.08
2023-03-24T13:51:22.026Z,2.10
2023-03-24T13:53:08.816Z,2.30
2023-03-24T13:54:41.895Z,5.65
2023-03-24T13:56:25.901Z,4.60
2023-03-24T13:58:08.616Z,6.15
2023-03-24T13:59:58.217Z,5.60
2023-03-24T14:01:37.689Z,5.55
2023-03-24T14:03:33.565Z,6.57
2023-03-24T14:05:08.147Z,4.05
2023-03-24T14:06:46.859Z,5.63
2023-03-24T14:08:19.928Z,5.00
2023-03-24T14:10:00.132Z,4.40
2023-03-24T14:11:50.027Z,4.00
2023-03-24T14:13:38.889Z,2.55
2023-03-24T14:15:18.865Z,6.00
2023-03-24T14:17:04.278Z,9.15
2023-03-24T14:18:43.432Z,9.07
2023-03-24T14:20:30.476Z,4.65
2023-03-24T14:22:14.298Z,6.20
2023-03-24T14:25:27.990Z,4.00
2023-03-24T14:27:01.214Z,3.65
2023-03-24T14:28:39.410Z,2.58
2023-03-24T14:30:21.499Z,3.38
2023-03-24T14:32:17.060Z,2.40
2023-03-24T14:34:03.946Z,1.88
2023-03-24T14:35:42.202Z,2.03
2023-03-24T14:37:16.404Z,1.50
2023-03-24T14:38:50.102Z,1.60
2023-03-24T14:40:29.836Z,2.50
2023-03-24T14:42:03.142Z,3.80
2023-03-24T14:43:55.891Z,2.40
2023-03-24T14:45:52.698Z,2.20
2023-03-24T14:47:29.823Z,2.42
2023-03-24T14:49:09.321Z,1.67
2023-03-24T14:50:42.548Z,1.95
2023-03-24T14:52:20.439Z,1.77
2023-03-24T14:53:57.761Z,1.60
2023-03-24T14:55:32.148Z,1.70
2023-03-24T14:57:07.087Z,1.80
2023-03-24T14:58:44.001Z,1.55
2023-03-24T15:00:21.661Z,1.30
2023-03-24T15:02:02.287Z,1.25
2023-03-24T15:03:45.927Z,1.40
2023-03-24T15:06:56.252Z,1.25
2023-03-24T15:08:29.174Z,1.20
2023-03-24T15:10:02.103Z,1.38
2023-03-24T15:11:39.541Z,1.00
2023-03-24T15:13:38.124Z,1.20
2023-03-24T15:15:16.635Z,1.00
2023-03-24T15:16:55.316Z,1.20
2023-03-24T15:18:28.604Z,1.00
2023-03-24T15:21:37.014Z,1.05
2023-03-24T15:23:18.027Z,1.10
2023-03-24T15:24:52.931Z,1.05
2023-03-24T15:26:26.811Z,1.00
2023-03-24T15:27:59.797Z,1.00
2023-03-24T15:29:32.797Z,1.23
2023-03-24T15:31:06.384Z,1.33
2023-03-24T15:32:46.188Z,1.30
2023-03-24T15:34:28.598Z,1.00
2023-03-24T15:36:02.201Z,1.48
2023-03-24T15:37:41.439Z,1.20
2023-03-24T15:39:19.434Z,2.30
2023-03-24T15:40:59.727Z,1.10
2023-03-24T15:42:32.763Z,1.40
2023-03-24T15:44:09.609Z,1.40
2023-03-24T15:45:49.516Z,1.35
2023-03-24T15:47:26.075Z,2.00
2023-03-24T15:49:00.936Z,2.20
2023-03-24T15:50:36.442Z,2.65
2023-03-24T15:52:26.686Z,3.05
2023-03-24T15:54:01.121Z,1.70
2023-03-24T15:55:35.878Z,2.10
2023-03-24T15:57:17.167Z,1.70
2023-03-24T15:58:53.273Z,1.90
2023-03-24T16:00:28.566Z,2.10
2023-03-24T16:02:01.729Z,1.45
2023-03-24T16:03:35.820Z,1.52
2023-03-24T16:05:19.729Z,1.10
2023-03-24T16:08:29.528Z,1.10
2023-03-24T16:10:07.142Z,1.15
2023-03-24T16:11:41.450Z,1.10
2023-03-24T16:13:17.429Z,1.20
2023-03-24T16:14:50.639Z,1.30
2023-03-24T16:16:27.284Z,1.23
2023-03-24T16:18:00.520Z,1.00
2023-03-24T16:19:33.818Z,1.10
2023-03-24T16:22:46.575Z,1.40
2023-03-24T16:24:19.574Z,1.20
2023-03-24T16:25:53.882Z,1.20
2023-03-24T16:27:26.840Z,4.97
2023-03-24T16:29:04.252Z,1.42
2023-03-24T16:30:40.489Z,1.38
2023-03-24T16:32:13.530Z,1.20
2023-03-24T16:33:47.010Z,1.25
2023-03-24T16:35:19.970Z,1.27
2023-03-24T16:36:54.492Z,1.65
2023-03-24T16:38:28.238Z,1.30
2023-03-24T16:40:03.388Z,1.70
2023-03-24T16:41:38.148Z,1.40
2023-03-24T16:43:11.335Z,1.60
2023-03-24T16:44:45.440Z,1.63
2023-03-24T16:46:22.133Z,1.52
2023-03-24T16:47:55.242Z,1.50
2023-03-24T16:49:28.389Z,1.63
2023-03-24T16:51:01.382Z,1.73
2023-03-24T16:52:34.445Z,1.70
2023-03-24T16:54:09.124Z,1.30
2023-03-24T16:55:44.305Z,1.65
2023-03-24T16:57:18.664Z,2.03
2023-03-24T16:58:53.183Z,1.48
2023-03-24T17:00:27.481Z,1.83
2023-03-24T17:02:05.269Z,2.00
2023-03-24T17:03:40.131Z,1.73
2023-03-24T17:05:19.376Z,1.58
2023-03-24T17:06:54.316Z,2.10
2023-03-24T17:08:27.400Z,1.58
2023-03-24T17:10:00.383Z,2.03
2023-03-24T17:11:35.495Z,1.80
2023-03-24T17:13:10.986Z,1.45
2023-03-24T17:14:45.403Z,1.65
2023-03-24T17:16:18.370Z,1.77
2023-03-24T17:17:51.713Z,1.65
2023-03-24T17:20:58.618Z,1.50
2023-03-24T17:22:31.528Z,1.70
2023-03-24T17:24:06.717Z,1.63
2023-03-24T17:25:39.926Z,1.40
2023-03-24T17:27:16.687Z,1.60
2023-03-24T17:28:51.391Z,1.50
2023-03-24T17:30:25.904Z,1.50
2023-03-24T17:31:58.860Z,2.70
2023-03-24T17:33:31.823Z,1.60
2023-03-24T17:35:05.274Z,1.60
2023-03-24T17:36:38.234Z,1.65
2023-03-24T17:38:13.980Z,1.77
2023-03-24T17:39:47.255Z,1.50
2023-03-24T17:42:53.313Z,1.67
2023-03-24T17:44:27.667Z,1.50
2023-03-24T17:46:01.225Z,2.17
2023-03-24T17:47:34.373Z,5.00
2023-03-24T17:49:07.477Z,3.92
2023-03-24T17:50:41.372Z,2.75
2023-03-24T17:52:14.347Z,2.65
2023-03-24T17:53:47.468Z,2.83
2023-03-24T17:55:20.558Z,2.78
2023-03-24T17:56:53.604Z,2.55
2023-03-24T17:58:27.696Z,2.90
2023-03-24T18:00:01.942Z,2.80
2023-03-24T18:01:39.459Z,2.20
2023-03-24T18:03:12.555Z,2.85
2023-03-24T18:04:45.763Z,2.20
2023-03-24T18:06:18.710Z,2.50
2023-03-24T18:07:51.785Z,2.30
2023-03-24T18:09:24.793Z,2.70
2023-03-24T18:11:04.676Z,2.10
2023-03-24T18:12:37.766Z,2.10
2023-03-24T18:14:10.706Z,1.98
2023-03-24T18:15:44.950Z,2.13
2023-03-24T18:17:17.874Z,2.40
2023-03-24T18:18:51.532Z,1.90
2023-03-24T18:20:24.488Z,2.30
2023-03-24T18:21:57.571Z,2.33
2023-03-24T18:23:31.817Z,2.13
2023-03-24T18:25:04.971Z,2.30
2023-03-24T18:26:38.082Z,2.85
2023-03-24T18:28:11.765Z,3.10
2023-03-24T18:29:44.715Z,3.17
2023-03-24T18:31:20.927Z,3.20
2023-03-24T18:32:53.941Z,2.95
2023-03-24T18:34:26.589Z,2.67
2023-03-24T18:35:59.610Z,3.30
2023-03-24T18:37:33.202Z,2.50
2023-03-24T18:39:08.194Z,3.03
2023-03-24T18:40:41.110Z,2.72
2023-03-24T18:42:14.026Z,2.15
2023-03-24T18:43:47.517Z,2.08
2023-03-24T18:45:20.764Z,2.20
2023-03-24T18:46:55.562Z,4.45
2023-03-24T18:48:28.590Z,2.20
2023-03-24T18:50:01.949Z,2.00
2023-03-24T18:53:08.652Z,2.13
2023-03-24T18:54:41.668Z,2.00
2023-03-24T18:56:15.101Z,2.03
2023-03-24T18:57:48.165Z,2.20
2023-03-24T18:59:21.271Z,2.00
2023-03-24T19:00:56.140Z,3.78
2023-03-24T19:02:30.506Z,2.28
2023-03-24T19:04:03.824Z,1.88
2023-03-24T19:05:36.320Z,3.00
2023-03-24T19:07:14.414Z,5.53
2023-03-24T19:08:51.664Z,2.53
2023-03-24T19:10:24.636Z,2.30
2023-03-24T19:11:57.646Z,1.80
2023-03-24T19:13:31.090Z,2.30
2023-03-24T19:15:05.830Z,2.47
2023-03-24T19:16:38.935Z,2.70
2023-03-24T19:18:13.677Z,4.80
2023-03-24T19:19:46.725Z,5.53
2023-03-24T19:21:23.036Z,3.85
2023-03-24T19:22:56.436Z,3.40
2023-03-24T19:26:02.707Z,2.60
2023-03-24T19:27:35.730Z,3.13
2023-03-24T19:29:08.742Z,2.85
2023-03-24T19:30:42.497Z,2.38
2023-03-24T19:32:15.540Z,2.03
2023-03-24T19:33:52.140Z,2.08
2023-03-24T19:35:25.200Z,2.28
2023-03-24T19:36:58.294Z,2.30
2023-03-24T19:38:31.309Z,2.88
2023-03-24T19:40:06.919Z,2.30
2023-03-24T19:41:40.191Z,2.20
2023-03-24T19:43:13.447Z,2.60
2023-03-24T19:46:21.017Z,2.33
2023-03-24T19:47:54.057Z,2.15
2023-03-24T19:49:28.452Z,2.10
2023-03-24T19:51:01.572Z,2.40
2023-03-24T19:52:34.801Z,2.00
2023-03-24T19:54:08.033Z,2.00
2023-03-24T19:55:41.042Z,2.17
2023-03-24T19:57:14.149Z,1.98
2023-03-24T19:58:47.204Z,2.20
2023-03-24T20:00:20.605Z,2.35
2023-03-24T20:03:28.980Z,2.17
2023-03-24T20:05:03.888Z,2.45
2023-03-24T20:06:36.911Z,2.53
2023-03-24T20:08:09.919Z,2.90
2023-03-24T20:09:42.988Z,2.47
2023-03-24T20:11:16.298Z,2.30
2023-03-24T20:14:22.211Z,2.10
2023-03-24T20:15:55.323Z,2.58
2023-03-24T20:17:29.607Z,2.20
2023-03-24T20:19:02.810Z,2.00
2023-03-24T20:20:37.098Z,2.33
2023-03-24T20:22:10.209Z,2.20
2023-03-24T20:23:43.172Z,2.20
2023-03-24T20:25:18.245Z,2.17
2023-03-24T20:26:51.663Z,1.90
2023-03-24T20:29:58.198Z,2.22
2023-03-24T20:31:31.939Z,2.10
2023-03-24T20:33:05.129Z,2.00
2023-03-24T20:34:38.838Z,2.75
2023-03-24T20:36:13.473Z,2.60
2023-03-24T20:37:46.793Z,3.85
2023-03-24T20:41:00.593Z,3.40
2023-03-24T20:42:34.508Z,2.45
2023-03-24T20:44:07.667Z,3.35
2023-03-24T20:45:40.782Z,2.78
2023-03-24T20:47:13.917Z,3.25
2023-03-24T20:48:47.164Z,2.90
2023-03-24T20:50:20.536Z,2.97
2023-03-24T20:53:28.570Z,2.20
2023-03-24T20:55:05.559Z,2.30
2023-03-24T20:56:38.862Z,2.10
2023-03-24T20:59:45.176Z,1.77
2023-03-24T21:02:55.554Z,1.75
2023-03-24T21:04:28.489Z,2.00
2023-03-24T21:06:01.547Z,2.00
2023-03-24T21:07:37.031Z,1.50
2023-03-24T21:09:10.133Z,1.98
2023-03-24T21:10:43.510Z,1.95
2023-03-24T21:13:49.458Z,1.92
2023-03-24T21:15:22.999Z,2.00
2023-03-24T21:16:56.156Z,1.80
2023-03-24T21:18:32.364Z,2.10
2023-03-24T21:20:11.617Z,2.15
2023-03-24T21:21:44.625Z,2.13
2023-03-24T21:23:19.132Z,2.00
2023-03-24T21:24:52.747Z,2.28
2023-03-24T21:26:26.237Z,1.98
2023-03-24T21:28:00.429Z,2.03
2023-03-24T21:29:33.646Z,2.00
2023-03-24T21:31:11.558Z,2.00
2023-03-24T21:32:44.593Z,2.20
2023-03-24T21:34:17.630Z,1.90
2023-03-24T21:35:50.929Z,1.77
2023-03-24T21:37:25.532Z,2.53
2023-03-24T21:38:59.986Z,2.50
2023-03-24T21:40:33.462Z,2.50
2023-03-24T21:42:07.012Z,2.10
2023-03-24T21:43:41.011Z,2.17
2023-03-24T21:45:16.759Z,2.10
2023-03-24T21:46:49.740Z,2.10
2023-03-24T21:48:23.403Z,2.33
2023-03-24T21:49:59.095Z,2.40
2023-03-24T21:51:36.634Z,2.30
2023-03-24T21:53:14.953Z,2.30
2023-03-24T21:54:49.402Z,2.78
2023-03-24T21:56:22.526Z,2.60
2023-03-24T21:57:56.682Z,2.50
2023-03-24T21:59:31.792Z,2.13
2023-03-24T22:01:04.981Z,2.28
2023-03-24T22:02:38.321Z,2.25
2023-03-24T22:05:44.477Z,1.98
2023-03-24T22:08:53.157Z,2.20
2023-03-24T22:10:30.016Z,2.00
2023-03-24T22:12:03.336Z,1.98
2023-03-24T22:15:11.777Z,1.70
2023-03-24T22:16:44.780Z,1.88
2023-03-24T22:18:17.908Z,1.90
2023-03-24T22:19:51.055Z,1.98
2023-03-24T22:21:24.075Z,2.13
2023-03-24T22:22:57.032Z,2.30
2023-03-24T22:24:30.947Z,2.10
2023-03-24T22:26:07.653Z,2.10
2023-03-24T22:27:40.788Z,2.08
2023-03-24T22:29:13.901Z,2.13
2023-03-24T22:30:46.498Z,1.98
2023-03-24T22:32:19.420Z,2.00
2023-03-24T22:33:53.747Z,2.10
2023-03-24T22:35:26.830Z,2.10
2023-03-24T22:36:59.810Z,2.10
2023-03-24T22:38:34.301Z,2.10
2023-03-24T22:40:09.257Z,2.15